Time;durP1;ratioP1;P1;durP2;ratioP2;P2;SDS_P1;SDS_P2;PMS_P1;PMS_P2;Temp;Humidity;BMP_temperature;BMP_pressure;BME280_temperature;BME280_humidity;BME280_pressure;Samples;Min_cycle;Max_cycle;Signal;HPM_P1;HPM_P2
2022/11/08 00:02:37;;;;;;;38.25;23.23;;;11.80;99.90;;;;;;4933431;29;20107;-74
2022/11/08 00:16:02;;;;;;;34.08;22.38;;;12.00;99.90;;;;;;4935150;29;20038;-73
2022/11/08 00:18:28;;;;;;;37.17;22.52;;;12.00;99.90;;;;;;4917804;29;20087;-76
2022/11/08 00:20:53;;;;;;;35.95;23.65;;;12.00;99.90;;;;;;4935166;29;20040;-74
2022/11/08 00:23:19;;;;;;;38.05;22.42;;;12.00;99.90;;;;;;4934754;29;20083;-74
2022/11/08 00:25:52;;;;;;;41.35;25.05;;;12.00;99.90;;;;;;4934401;29;20127;-73
2022/11/08 00:28:18;;;;;;;;;;;12.00;99.90;;;;;;4934771;29;20067;-71
2022/11/08 00:30:44;;;;;;;42.00;23.95;;;12.00;99.90;;;;;;4926449;29;20328;-72
2022/11/08 00:33:09;;;;;;;38.83;25.77;;;12.00;99.90;;;;;;4934773;29;20032;-72
2022/11/08 00:35:35;;;;;;;34.75;24.25;;;12.10;99.90;;;;;;4934744;29;20064;-73
2022/11/08 00:38:03;;;;;;;33.80;22.92;;;12.10;99.90;;;;;;4934543;29;20517;-71
2022/11/08 00:40:29;;;;;;;33.83;21.20;;;12.10;99.90;;;;;;4934551;29;20028;-73
2022/11/08 00:42:54;;;;;;;35.67;22.70;;;12.20;99.90;;;;;;4934412;29;20058;-75
2022/11/08 00:45:20;;;;;;;42.53;25.05;;;12.10;99.90;;;;;;4934503;29;20027;-71
2022/11/08 00:47:46;;;;;;;38.30;21.27;;;12.10;99.90;;;;;;4934197;29;20083;-72
2022/11/08 00:50:12;;;;;;;31.77;22.77;;;12.10;99.90;;;;;;4934298;29;20043;-71
2022/11/08 00:52:38;;;;;;;30.30;20.88;;;12.20;99.90;;;;;;4934952;29;20119;-72
2022/11/08 00:55:04;;;;;;;29.85;20.17;;;12.20;99.90;;;;;;4934829;29;20038;-72
2022/11/08 00:57:30;;;;;;;32.20;20.13;;;12.20;99.90;;;;;;4934667;29;20406;-72
2022/11/08 00:59:56;;;;;;;31.52;21.42;;;12.20;99.90;;;;;;4934492;29;20107;-73
2022/11/08 01:02:22;;;;;;;29.83;19.50;;;12.20;99.90;;;;;;4934399;29;20130;-74
2022/11/08 01:04:48;;;;;;;28.05;19.55;;;12.20;99.90;;;;;;4933701;29;20563;-72
2022/11/08 01:07:14;;;;;;;27.33;19.98;;;12.20;99.90;;;;;;4933910;29;20059;-73
2022/11/08 01:09:39;;;;;;;34.90;20.98;;;12.20;99.90;;;;;;4934146;29;20090;-73
2022/11/08 01:12:05;;;;;;;32.20;21.02;;;12.20;99.90;;;;;;4934516;29;20119;-72
2022/11/08 01:14:31;;;;;;;35.47;22.70;;;12.20;99.90;;;;;;4934297;29;20514;-73
2022/11/08 01:16:57;;;;;;;31.10;21.50;;;12.20;99.90;;;;;;4934019;29;20039;-72
2022/11/08 01:19:23;;;;;;;29.55;20.50;;;12.20;99.90;;;;;;4933967;29;20491;-72
2022/11/08 01:21:48;;;;;;;29.40;19.70;;;12.20;99.90;;;;;;4933786;29;20402;-72
2022/11/08 01:24:14;;;;;;;31.33;21.35;;;12.20;99.90;;;;;;4933852;29;20047;-73
2022/11/08 01:26:40;;;;;;;34.08;23.85;;;12.20;99.90;;;;;;4932384;29;20101;-73
2022/11/08 01:29:06;;;;;;;34.03;21.08;;;12.20;99.90;;;;;;4932136;29;20122;-75
2022/11/08 01:31:32;;;;;;;33.90;21.33;;;12.20;99.90;;;;;;4936793;29;20042;-72
2022/11/08 01:33:58;;;;;;;37.00;21.77;;;12.10;99.90;;;;;;4934796;29;20043;-74
2022/11/08 01:36:26;;;;;;;33.88;23.38;;;12.00;99.90;;;;;;4935851;29;20039;-74
2022/11/08 01:38:53;;;;;;;35.47;23.45;;;12.00;99.90;;;;;;4934129;29;20432;-72
2022/11/08 01:41:21;;;;;;;37.75;22.77;;;12.00;99.90;;;;;;4936231;29;20500;-74
2022/11/08 01:43:51;;;;;;;39.17;24.88;;;12.10;99.90;;;;;;4936534;29;20059;-74
2022/11/08 01:46:17;;;;;;;37.10;22.83;;;12.10;99.90;;;;;;4933310;29;20056;-73
2022/11/08 01:49:05;;;;;;;33.17;24.20;;;12.10;99.90;;;;;;4935949;29;20060;-72
2022/11/08 01:51:39;;;;;;;37.10;23.38;;;12.10;99.90;;;;;;4916681;29;20043;-75
2022/11/08 01:54:08;;;;;;;39.90;23.98;;;12.00;99.90;;;;;;4933542;29;20438;-73
2022/11/08 01:56:35;;;;;;;36.83;24.60;;;12.00;99.90;;;;;;4936674;29;20031;-72
2022/11/08 01:59:03;;;;;;;38.92;24.48;;;12.00;99.90;;;;;;4935606;29;20359;-72
2022/11/08 02:01:30;;;;;;;40.28;24.75;;;11.90;99.90;;;;;;4934930;29;20035;-73
2022/11/08 02:03:57;;;;;;;42.60;26.98;;;11.90;99.90;;;;;;4933073;29;20361;-74
2022/11/08 02:06:23;;;;;;;38.13;27.27;;;12.00;99.90;;;;;;4930965;29;20529;-74
2022/11/08 02:08:49;;;;;;;37.95;26.48;;;12.00;99.90;;;;;;4934151;29;20048;-72
2022/11/08 02:11:17;;;;;;;42.30;27.45;;;11.90;99.90;;;;;;4935140;29;20575;-73
2022/11/08 02:13:43;;;;;;;42.25;28.63;;;12.00;99.90;;;;;;4934729;29;20039;-72
2022/11/08 02:16:11;;;;;;;43.28;27.60;;;12.00;99.90;;;;;;4936043;29;20042;-72
2022/11/08 02:18:47;;;;;;;45.97;28.52;;;12.10;99.90;;;;;;4939838;29;20020;-73
2022/11/08 02:21:38;;;;;;;43.35;27.88;;;12.10;99.90;;;;;;4925352;29;20460;-71
2022/11/08 02:24:12;;;;;;;44.42;26.52;;;12.10;99.90;;;;;;4922700;29;20047;-72
2022/11/08 02:26:39;;;;;;;41.78;27.20;;;12.20;99.90;;;;;;4942313;29;20397;-72
2022/11/08 02:29:28;;;;;;;43.10;25.75;;;12.20;99.90;;;;;;4935726;29;20465;-74
2022/11/08 02:31:55;;;;;;;35.20;22.50;;;12.20;99.90;;;;;;4937592;29;20039;-72
2022/11/08 02:34:26;;;;;;;36.90;22.90;;;12.20;99.90;;;;;;4929735;29;20032;-76
2022/11/08 02:36:57;;;;;;;39.03;24.00;;;12.20;99.90;;;;;;4932037;29;20047;-72
2022/11/08 02:39:33;;;;;;;37.42;25.65;;;12.20;99.90;;;;;;4936998;29;20043;-71
2022/11/08 02:42:03;;;;;;;39.95;23.27;;;12.20;99.90;;;;;;4936729;29;20427;-72
2022/11/08 02:44:31;;;;;;;41.03;24.80;;;12.20;99.90;;;;;;4928081;29;20115;-72
2022/11/08 02:47:02;;;;;;;38.17;23.83;;;12.20;99.90;;;;;;4929709;29;20067;-72
2022/11/08 02:49:31;;;;;;;46.65;28.38;;;12.20;99.90;;;;;;4925192;29;20052;-73
2022/11/08 02:51:58;;;;;;;37.42;26.67;;;12.10;99.90;;;;;;4942864;29;20036;-72
2022/11/08 02:54:31;;;;;;;41.97;27.50;;;12.10;99.90;;;;;;4941408;29;20127;-72
2022/11/08 02:56:58;;;;;;;41.88;27.52;;;12.00;99.90;;;;;;4949579;29;20512;-72
2022/11/08 02:59:24;;;;;;;39.70;26.27;;;12.10;99.90;;;;;;4934212;29;20110;-74
2022/11/08 03:01:49;;;;;;;44.22;27.20;;;12.10;99.90;;;;;;4935003;29;20111;-72
2022/11/08 03:04:16;;;;;;;37.83;26.23;;;12.20;99.90;;;;;;4933721;29;20043;-73
2022/11/08 03:06:42;;;;;;;42.03;27.23;;;12.20;99.90;;;;;;4939985;29;20100;-73
2022/11/08 03:09:09;;;;;;;40.20;26.70;;;12.20;99.90;;;;;;4936490;29;20126;-75
2022/11/08 03:11:34;;;;;;;40.35;26.55;;;12.20;99.90;;;;;;4936278;29;20036;-73
2022/11/08 03:14:00;;;;;;;41.92;29.10;;;12.30;99.90;;;;;;4936145;29;20511;-73
2022/11/08 03:16:26;;;;;;;41.67;27.90;;;12.30;99.90;;;;;;4936159;29;20060;-72
2022/11/08 03:18:52;;;;;;;40.08;25.63;;;12.30;99.90;;;;;;4936224;29;20119;-72
2022/11/08 03:21:18;;;;;;;40.25;26.88;;;12.20;99.90;;;;;;4944127;29;20063;-71
2022/11/08 03:23:43;;;;;;;41.22;27.15;;;12.20;99.90;;;;;;4936263;29;20119;-73
2022/11/08 03:26:09;;;;;;;41.38;26.13;;;12.10;99.90;;;;;;4935884;29;20397;-74
2022/11/08 03:28:43;;;;;;;38.85;26.13;;;12.10;99.90;;;;;;4937738;29;20087;-73
2022/11/08 03:31:13;;;;;;;41.28;26.10;;;12.00;99.90;;;;;;4942069;29;20048;-73
2022/11/08 03:33:39;;;;;;;47.58;27.80;;;12.10;99.90;;;;;;4943961;29;20118;-72
2022/11/08 03:36:05;;;;;;;39.00;24.52;;;12.00;99.90;;;;;;4935282;29;20122;-72
2022/11/08 03:38:31;;;;;;;35.53;24.27;;;12.00;99.90;;;;;;4941374;29;20115;-74
2022/11/08 03:40:57;;;;;;;45.00;27.80;;;12.00;99.90;;;;;;4941819;29;20072;-73
2022/11/08 03:43:25;;;;;;;45.60;26.17;;;12.00;99.90;;;;;;4941509;29;20039;-73
2022/11/08 03:45:56;;;;;;;45.65;26.33;;;12.10;99.90;;;;;;4948457;29;20039;-75
2022/11/08 03:48:26;;;;;;;41.05;26.00;;;12.10;99.90;;;;;;4942705;29;20044;-71
2022/11/08 03:50:56;;;;;;;43.30;27.42;;;12.20;99.90;;;;;;4882875;29;20055;-76
2022/11/08 03:53:28;;;;;;;40.90;27.15;;;12.20;99.90;;;;;;4926381;29;20036;-73
2022/11/08 03:55:59;;;;;;;38.45;26.52;;;12.20;99.90;;;;;;4927387;29;20036;-74
2022/11/08 03:58:29;;;;;;;43.75;26.85;;;12.20;99.90;;;;;;4928909;29;20063;-77
2022/11/08 04:00:57;;;;;;;47.88;28.77;;;12.20;99.90;;;;;;4923074;29;20127;-74
2022/11/08 04:03:25;;;;;;;42.15;27.13;;;12.30;99.90;;;;;;4929026;29;20052;-73
2022/11/08 04:05:52;;;;;;;43.20;26.35;;;12.30;99.90;;;;;;4930114;29;20422;-72
2022/11/08 04:08:20;;;;;;;42.53;28.38;;;12.30;99.90;;;;;;4928827;29;20032;-75
2022/11/08 04:10:48;;;;;;;44.38;28.38;;;12.30;99.90;;;;;;4933716;29;20047;-75
2022/11/08 04:16:04;;;;;;;47.80;31.38;;;12.20;99.90;;;;;;4926207;29;20032;-74
2022/11/08 04:21:25;;;;;;;50.00;30.58;;;12.30;99.90;;;;;;4929791;29;20028;-73
2022/11/08 04:23:52;;;;;;;49.30;33.67;;;12.30;99.90;;;;;;4928293;29;20040;-77
2022/11/08 04:26:24;;;;;;;49.30;30.67;;;12.30;99.90;;;;;;4925722;29;20039;-76
2022/11/08 04:28:51;;;;;;;53.55;35.17;;;12.30;99.90;;;;;;4932565;29;20044;-72
2022/11/08 04:31:24;;;;;;;63.78;43.85;;;12.30;99.90;;;;;;4931503;29;20044;-75
2022/11/08 04:33:51;;;;;;;94.90;67.82;;;12.20;99.90;;;;;;4927686;29;20028;-73
2022/11/08 04:36:19;;;;;;;97.30;74.30;;;12.30;99.90;;;;;;4926468;29;20032;-75
2022/11/08 04:38:50;;;;;;;99.32;65.95;;;12.30;99.90;;;;;;4929292;29;20091;-75
2022/11/08 04:41:21;;;;;;;92.38;68.60;;;12.20;99.90;;;;;;4928790;29;20039;-76
2022/11/08 04:43:50;;;;;;;91.25;66.13;;;12.20;99.90;;;;;;4928438;29;20043;-74
2022/11/08 04:46:21;;;;;;;92.20;66.50;;;12.20;99.90;;;;;;4901448;29;20024;-76
2022/11/08 04:48:52;;;;;;;93.20;67.50;;;12.20;99.90;;;;;;4930619;29;20044;-76
2022/11/08 04:51:29;;;;;;;80.25;58.42;;;12.30;99.90;;;;;;4930836;29;20044;-74
2022/11/08 04:54:00;;;;;;;77.65;58.25;;;12.30;99.90;;;;;;4913766;29;20059;-74
2022/11/08 04:56:29;;;;;;;77.38;57.85;;;12.20;99.90;;;;;;4946005;29;20025;-74
2022/11/08 04:59:01;;;;;;;85.68;60.35;;;12.30;99.90;;;;;;4929545;29;20027;-76
2022/11/08 05:01:35;;;;;;;74.13;56.10;;;12.30;99.90;;;;;;4946348;29;20071;-76
2022/11/08 05:04:02;;;;;;;73.72;53.85;;;12.20;99.90;;;;;;4943662;29;20027;-76
2022/11/08 05:06:33;;;;;;;71.03;51.15;;;12.20;99.90;;;;;;4928190;29;20031;-74
2022/11/08 05:12:08;;;;;;;65.47;42.70;;;12.10;99.90;;;;;;5181665;23;20058;-74
2022/11/08 05:14:38;;;;;;;56.20;40.95;;;12.10;99.90;;;;;;4973659;28;20031;-72
2022/11/08 05:17:04;;;;;;;56.88;39.17;;;12.10;99.90;;;;;;4989022;28;20031;-76
2022/11/08 05:24:58;;;;;;;63.47;42.10;;;12.10;99.90;;;;;;4979605;28;20030;-72
2022/11/08 05:27:24;;;;;;;153.20;87.22;;;12.20;99.90;;;;;;4991896;28;20117;-72
2022/11/08 05:29:53;;;;;;;141.70;78.95;;;12.20;99.90;;;;;;4972432;28;20031;-75
2022/11/08 05:32:19;;;;;;;156.02;88.82;;;12.20;99.90;;;;;;4976898;28;20041;-74
2022/11/08 05:34:46;;;;;;;182.98;103.60;;;12.30;99.90;;;;;;4995958;28;20414;-71
2022/11/08 05:37:16;;;;;;;164.63;89.05;;;12.30;99.90;;;;;;5003032;28;20035;-73
2022/11/08 05:39:42;;;;;;;150.43;82.00;;;12.30;99.90;;;;;;4999588;28;20043;-73
2022/11/08 05:42:21;;;;;;;155.20;85.60;;;12.30;99.90;;;;;;5011376;28;20083;-75
2022/11/08 05:44:52;;;;;;;164.57;90.97;;;12.40;99.90;;;;;;5010286;28;20030;-73
2022/11/08 05:47:26;;;;;;;131.48;71.10;;;12.40;99.90;;;;;;5007231;28;20039;-73
2022/11/08 05:50:05;;;;;;;113.60;64.15;;;12.40;99.90;;;;;;5013861;28;20054;-75
2022/11/08 05:52:42;;;;;;;123.43;69.07;;;12.40;99.90;;;;;;4992481;28;20038;-73
2022/11/08 05:55:11;;;;;;;89.30;53.15;;;12.40;99.90;;;;;;5011914;28;20081;-73
2022/11/08 05:58:10;;;;;;;61.55;40.03;;;12.40;99.90;;;;;;5013291;28;20042;-75
2022/11/08 06:01:13;;;;;;;80.43;43.33;;;12.50;99.90;;;;;;5013222;28;20034;-74
2022/11/08 06:03:58;;;;;;;59.58;36.53;;;12.50;99.90;;;;;;4987292;28;20036;-73
2022/11/08 06:06:56;;;;;;;57.70;34.47;;;12.50;99.90;;;;;;4987950;28;20046;-73
2022/11/08 06:09:41;;;;;;;47.03;29.63;;;12.40;99.90;;;;;;4992413;28;20058;-73
2022/11/08 06:12:15;;;;;;;48.28;32.50;;;12.40;99.90;;;;;;4990534;28;20067;-74
2022/11/08 06:15:03;;;;;;;53.08;31.90;;;12.40;99.90;;;;;;4991890;28;20061;-74
2022/11/08 06:18:34;;;;;;;48.85;31.27;;;12.50;99.90;;;;;;4985709;28;20054;-74
2022/11/08 06:21:27;;;;;;;50.30;33.65;;;12.50;99.90;;;;;;4978469;28;20029;-73
2022/11/08 06:24:11;;;;;;;59.17;34.58;;;12.50;99.90;;;;;;4968880;28;20026;-74
2022/11/08 06:27:09;;;;;;;57.15;34.90;;;12.50;99.90;;;;;;4981427;28;20047;-74
2022/11/08 06:29:46;;;;;;;57.90;40.67;;;12.60;99.90;;;;;;4950284;28;20612;-74
2022/11/08 06:32:37;;;;;;;62.47;41.33;;;12.60;99.90;;;;;;4966336;28;20042;-74
2022/11/08 06:35:17;;;;;;;61.97;41.53;;;12.60;99.90;;;;;;4972467;28;20027;-74
2022/11/08 06:38:07;;;;;;;63.80;39.50;;;12.70;99.90;;;;;;4973364;28;20033;-74
2022/11/08 06:40:58;;;;;;;59.22;39.83;;;12.60;99.90;;;;;;4963788;28;20030;-74
2022/11/08 06:44:27;;;;;;;95.75;59.47;;;12.70;99.90;;;;;;4969638;28;20016;-75
2022/11/08 06:47:52;;;;;;;68.65;47.08;;;12.70;99.90;;;;;;4981529;28;20034;-74
2022/11/08 06:51:30;;;;;;;70.75;42.50;;;12.70;99.90;;;;;;4976388;28;20063;-74
2022/11/08 06:54:10;;;;;;;64.50;39.88;;;12.70;99.90;;;;;;4974262;28;20034;-74
2022/11/08 06:56:43;;;;;;;63.45;37.72;;;12.70;99.90;;;;;;4935651;28;20055;-73
2022/11/08 06:59:09;;;;;;;65.82;36.17;;;12.70;99.90;;;;;;4974309;28;20042;-73
2022/11/08 07:01:35;;;;;;;64.03;36.53;;;12.80;99.90;;;;;;4974972;28;20057;-74
2022/11/08 07:04:02;;;;;;;56.58;35.92;;;12.80;99.90;;;;;;4960802;28;20027;-74
2022/11/08 07:06:29;;;;;;;50.58;31.63;;;12.80;99.90;;;;;;4956788;28;20031;-75
2022/11/08 07:08:55;;;;;;;51.28;31.80;;;12.80;99.90;;;;;;4974480;28;20047;-76
2022/11/08 07:11:37;;;;;;;48.72;31.45;;;12.80;99.90;;;;;;4995216;28;20050;-74
2022/11/08 07:14:16;;;;;;;59.40;33.40;;;12.90;99.90;;;;;;4970436;28;20122;-75
2022/11/08 07:16:49;;;;;;;51.35;30.83;;;13.00;99.90;;;;;;4955399;28;20064;-74
2022/11/08 07:19:25;;;;;;;56.28;32.75;;;13.00;99.90;;;;;;4958535;28;20070;-74
2022/11/08 07:21:54;;;;;;;53.10;35.95;;;13.00;99.90;;;;;;4935961;28;20074;-74
2022/11/08 07:24:20;;;;;;;68.32;40.33;;;13.00;99.90;;;;;;4955050;28;20027;-74
2022/11/08 07:27:13;;;;;;;67.15;43.97;;;13.00;99.90;;;;;;4977488;28;20015;-74
2022/11/08 07:30:13;;;;;;;69.35;41.70;;;13.00;99.90;;;;;;4992526;28;20038;-74
2022/11/08 07:33:12;;;;;;;74.00;45.05;;;13.00;99.90;;;;;;4994065;28;20142;-75
2022/11/08 07:36:05;;;;;;;64.22;36.70;;;13.00;99.90;;;;;;4960162;28;20043;-74
2022/11/08 07:38:35;;;;;;;54.10;30.63;;;13.10;99.90;;;;;;4968623;28;20031;-73
2022/11/08 07:41:01;;;;;;;62.47;33.70;;;13.00;99.90;;;;;;4954577;28;20466;-73
2022/11/08 07:43:27;;;;;;;56.10;33.05;;;13.10;99.90;;;;;;4954888;28;20036;-73
2022/11/08 07:45:59;;;;;;;62.78;35.78;;;13.10;99.90;;;;;;4954386;28;20098;-76
2022/11/08 07:48:26;;;;;;;54.22;32.55;;;13.10;99.90;;;;;;4954340;28;20049;-73
2022/11/08 07:50:52;;;;;;;50.30;31.55;;;13.10;99.90;;;;;;4954298;28;20020;-72
2022/11/08 07:53:18;;;;;;;50.83;30.85;;;13.10;99.90;;;;;;4954240;28;20054;-75
2022/11/08 07:55:46;;;;;;;61.03;35.42;;;13.20;99.90;;;;;;4967792;28;20039;-75
2022/11/08 07:58:14;;;;;;;55.83;33.78;;;13.30;99.90;;;;;;4954209;28;20043;-73
2022/11/08 08:00:41;;;;;;;51.92;32.15;;;13.30;99.90;;;;;;4954108;28;20027;-73
2022/11/08 08:03:10;;;;;;;58.38;36.10;;;13.30;99.90;;;;;;4953794;28;20047;-73
2022/11/08 08:10:01;;;;;;;51.35;30.88;;;13.50;99.90;;;;;;4972763;28;20046;-76
2022/11/08 08:12:51;;;;;;;53.72;32.20;;;13.50;99.90;;;;;;4972313;28;20051;-73
2022/11/08 08:15:18;;;;;;;56.65;32.47;;;13.50;99.90;;;;;;4953827;28;20061;-76
2022/11/08 08:17:44;;;;;;;57.17;34.20;;;13.50;99.90;;;;;;4953879;28;20041;-73
2022/11/08 08:20:10;;;;;;;51.88;33.50;;;13.60;99.90;;;;;;4953523;28;20401;-73
2022/11/08 08:22:41;;;;;;;54.03;31.80;;;13.60;99.90;;;;;;4953716;28;20042;-73
2022/11/08 08:25:07;;;;;;;50.33;27.30;;;13.70;99.90;;;;;;4953321;28;20078;-73
2022/11/08 08:27:33;;;;;;;49.97;30.42;;;13.80;99.90;;;;;;4954233;28;20375;-74
2022/11/08 08:29:59;;;;;;;51.47;29.88;;;13.90;99.90;;;;;;4967435;28;20070;-74
2022/11/08 08:32:25;;;;;;;51.28;28.63;;;14.00;99.90;;;;;;4954075;28;20035;-74
2022/11/08 08:34:50;;;;;;;40.58;25.40;;;14.20;99.90;;;;;;4953346;28;20074;-74
2022/11/08 08:37:16;;;;;;;42.13;28.02;;;14.20;99.90;;;;;;4953289;28;20085;-75
2022/11/08 08:39:42;;;;;;;41.53;23.08;;;14.20;99.90;;;;;;4953796;28;20130;-74
2022/11/08 08:42:21;;;;;;;38.35;22.65;;;14.30;99.90;;;;;;4976956;28;20115;-75
2022/11/08 08:44:47;;;;;;;36.83;22.70;;;14.30;99.90;;;;;;4927770;29;20039;-74
2022/11/08 08:47:14;;;;;;;39.97;23.30;;;14.50;99.90;;;;;;4975958;28;20026;-76
2022/11/08 08:49:40;;;;;;;42.50;21.80;;;14.50;99.90;;;;;;4953523;28;20493;-75
2022/11/08 08:52:53;;;;;;;40.47;23.05;;;14.30;99.90;;;;;;4976807;28;20015;-75
2022/11/08 08:56:15;;;;;;;34.20;20.65;;;14.30;99.90;;;;;;4961103;28;20058;-76
2022/11/08 08:59:52;;;;;;;35.17;20.05;;;14.30;99.90;;;;;;4979187;28;20111;-74
2022/11/08 09:03:18;;;;;;;34.45;20.55;;;14.30;99.90;;;;;;4978106;28;20030;-75
2022/11/08 09:06:20;;;;;;;39.35;23.00;;;14.30;99.90;;;;;;4977323;28;20038;-75
2022/11/08 09:09:06;;;;;;;33.78;19.35;;;14.30;99.90;;;;;;4991007;28;20059;-75
2022/11/08 09:12:03;;;;;;;36.42;20.60;;;14.40;99.90;;;;;;4974782;28;20070;-75
2022/11/08 09:15:22;;;;;;;37.20;22.73;;;14.40;99.90;;;;;;4950269;28;20047;-75
2022/11/08 09:18:20;;;;;;;41.83;23.85;;;14.10;99.90;;;;;;4971888;28;20110;-75
2022/11/08 09:21:13;;;;;;;39.65;21.88;;;14.00;99.90;;;;;;4963841;28;20043;-75
2022/11/08 09:23:46;;;;;;;39.15;22.15;;;14.10;99.90;;;;;;4957944;28;20079;-74
2022/11/08 09:26:12;;;;;;;44.95;29.02;;;14.10;99.90;;;;;;4943287;29;20076;-74
2022/11/08 09:28:37;;;;;;;36.03;20.75;;;14.20;99.90;;;;;;4949886;29;20455;-74
2022/11/08 09:31:06;;;;;;;35.95;21.05;;;14.10;99.90;;;;;;4953046;29;20086;-75
2022/11/08 09:33:32;;;;;;;29.40;18.40;;;14.10;99.90;;;;;;4953501;29;20106;-74
2022/11/08 09:36:02;;;;;;;29.48;17.80;;;14.10;99.90;;;;;;4953322;29;20043;-75
2022/11/08 09:38:29;;;;;;;41.55;18.58;;;14.10;99.90;;;;;;4953219;29;20565;-75
2022/11/08 09:41:15;;;;;;;28.70;16.42;;;14.20;99.90;;;;;;4953164;29;20062;-74
2022/11/08 09:43:59;;;;;;;32.47;17.48;;;14.30;99.90;;;;;;4953196;29;20488;-74
2022/11/08 09:46:54;;;;;;;28.10;16.70;;;14.40;99.90;;;;;;4954798;28;20042;-75
2022/11/08 09:49:31;;;;;;;26.02;16.38;;;14.50;99.90;;;;;;4956488;29;20093;-75
2022/11/08 09:51:59;;;;;;;29.02;17.15;;;14.20;99.90;;;;;;4956945;28;20035;-75
2022/11/08 09:54:43;;;;;;;25.27;15.52;;;14.40;99.90;;;;;;4956759;29;20155;-75
2022/11/08 09:57:23;;;;;;;32.92;18.10;;;14.30;99.90;;;;;;4956712;29;20078;-74
2022/11/08 09:59:59;;;;;;;27.95;16.58;;;14.30;99.90;;;;;;4944290;29;20043;-75
2022/11/08 10:02:26;;;;;;;31.05;15.55;;;14.30;99.90;;;;;;4956500;29;20078;-75
2022/11/08 10:05:03;;;;;;;32.55;16.58;;;14.20;99.90;;;;;;4956447;29;20030;-74
2022/11/08 10:07:54;;;;;;;27.85;16.55;;;14.30;99.90;;;;;;4956104;29;20070;-75
2022/11/08 10:10:32;;;;;;;30.52;17.92;;;14.00;99.90;;;;;;4943019;28;20027;-74
2022/11/08 10:13:21;;;;;;;33.17;17.20;;;14.20;99.90;;;;;;4956660;29;20403;-75
2022/11/08 10:15:59;;;;;;;28.67;16.52;;;14.30;99.90;;;;;;4945197;29;20043;-75
2022/11/08 10:18:52;;;;;;;36.78;19.13;;;14.40;99.90;;;;;;4956099;29;20445;-75
2022/11/08 10:21:37;;;;;;;33.47;18.42;;;14.50;99.90;;;;;;4956198;28;20047;-76
2022/11/08 10:24:17;;;;;;;34.03;19.05;;;14.70;99.90;;;;;;4943245;29;20485;-76
2022/11/08 10:26:46;;;;;;;33.55;17.67;;;14.80;99.90;;;;;;4956220;29;20058;-75
2022/11/08 10:29:31;;;;;;;33.33;18.10;;;14.80;99.90;;;;;;4955602;29;20047;-75
2022/11/08 10:32:18;;;;;;;32.33;18.48;;;14.50;99.90;;;;;;4956337;29;20077;-75
2022/11/08 10:34:54;;;;;;;29.05;18.33;;;14.60;99.90;;;;;;4955706;29;20043;-74
2022/11/08 10:37:21;;;;;;;34.22;17.73;;;14.70;99.90;;;;;;4955884;29;20062;-75
2022/11/08 10:39:57;;;;;;;39.63;19.67;;;14.80;99.90;;;;;;4956463;29;20558;-75
2022/11/08 10:43:07;;;;;;;34.70;20.17;;;14.70;99.90;;;;;;4955627;29;20039;-76
2022/11/08 10:45:33;;;;;;;27.58;17.30;;;14.90;99.90;;;;;;4915273;29;20089;-76
2022/11/08 10:47:59;;;;;;;29.42;17.17;;;14.90;99.90;;;;;;4915235;29;20127;-77
2022/11/08 10:50:40;;;;;;;29.50;18.25;;;14.90;99.90;;;;;;4915414;29;20044;-75
2022/11/08 10:53:15;;;;;;;32.83;18.63;;;14.90;99.90;;;;;;4914957;29;20055;-76
2022/11/08 10:55:48;;;;;;;31.05;18.50;;;15.00;99.90;;;;;;4915335;29;20054;-77
2022/11/08 10:58:41;;;;;;;35.03;20.33;;;15.00;99.90;;;;;;4897813;29;20044;-76
2022/11/08 11:01:20;;;;;;;29.08;18.25;;;15.20;99.90;;;;;;4913058;29;20399;-76
2022/11/08 11:03:48;;;;;;;30.15;18.02;;;15.20;99.90;;;;;;4915229;29;20471;-77
2022/11/08 11:06:22;;;;;;;24.75;16.75;;;15.30;99.90;;;;;;4913916;29;20134;-76
2022/11/08 11:08:53;;;;;;;26.90;16.90;;;15.30;99.90;;;;;;4914833;29;20075;-77
2022/11/08 11:11:25;;;;;;;29.25;17.27;;;15.40;99.90;;;;;;4914592;29;20059;-77
2022/11/08 11:14:09;;;;;;;26.35;15.40;;;15.50;99.90;;;;;;4902082;29;20044;-77
2022/11/08 11:16:36;;;;;;;30.05;16.83;;;15.50;99.90;;;;;;4937745;29;20039;-76
2022/11/08 11:19:04;;;;;;;28.25;17.15;;;15.60;99.90;;;;;;4937067;29;20027;-76
2022/11/08 11:21:38;;;;;;;29.48;16.92;;;15.30;99.90;;;;;;4947375;28;20031;-77
2022/11/08 11:24:10;;;;;;;29.23;17.30;;;15.50;99.90;;;;;;4938440;29;20039;-77
2022/11/08 11:26:55;;;;;;;27.08;17.05;;;15.40;99.90;;;;;;4948842;29;20050;-74
2022/11/08 11:29:32;;;;;;;24.02;15.25;;;15.60;99.90;;;;;;4946570;29;20058;-75
2022/11/08 11:32:21;;;;;;;29.63;17.08;;;15.70;99.90;;;;;;4941315;29;20055;-76
2022/11/08 11:34:58;;;;;;;24.65;16.55;;;15.70;99.90;;;;;;4935695;29;20380;-75
2022/11/08 11:37:42;;;;;;;27.27;16.42;;;15.70;99.90;;;;;;4942198;29;20020;-75
2022/11/08 11:40:44;;;;;;;28.73;17.92;;;15.80;99.90;;;;;;4952450;28;20071;-75
2022/11/08 11:43:31;;;;;;;30.05;18.17;;;15.60;99.90;;;;;;4958273;28;20054;-76
2022/11/08 11:46:22;;;;;;;25.60;16.58;;;15.80;99.90;;;;;;4963563;28;20517;-75
2022/11/08 11:49:01;;;;;;;26.33;16.13;;;15.80;99.90;;;;;;4971504;29;20086;-75
2022/11/08 11:51:30;;;;;;;25.38;16.83;;;15.90;99.90;;;;;;4948287;28;20032;-75
2022/11/08 11:53:57;;;;;;;26.65;15.95;;;15.80;99.90;;;;;;4965834;29;20036;-76
2022/11/08 11:56:55;;;;;;;25.65;16.10;;;15.70;99.90;;;;;;4966008;29;20019;-75
2022/11/08 11:59:43;;;;;;;28.00;16.90;;;15.80;99.90;;;;;;4958870;29;20079;-75
2022/11/08 12:02:20;;;;;;;25.25;15.10;;;15.80;99.90;;;;;;4965222;28;20041;-75
2022/11/08 12:05:13;;;;;;;28.77;16.52;;;15.80;99.90;;;;;;4956072;29;20027;-75
2022/11/08 12:08:03;;;;;;;27.58;16.60;;;15.80;99.90;;;;;;4963955;28;20047;-75
2022/11/08 12:11:01;;;;;;;29.13;16.48;;;15.90;99.90;;;;;;4890308;29;20045;-76
2022/11/08 12:13:34;;;;;;;26.35;15.20;;;16.00;99.90;;;;;;4872439;29;20045;-74
2022/11/08 12:16:16;;;;;;;28.08;16.23;;;16.10;99.90;;;;;;4857434;29;20142;-75
2022/11/08 12:18:44;;;;;;;21.75;14.00;;;16.20;99.90;;;;;;4846170;29;20045;-77
2022/11/08 12:21:34;;;;;;;22.13;13.07;;;16.30;99.90;;;;;;4867269;29;20076;-75
2022/11/08 12:24:09;;;;;;;23.90;15.90;;;16.30;99.90;;;;;;4875942;29;20056;-76
2022/11/08 12:27:02;;;;;;;24.58;14.63;;;16.20;99.90;;;;;;4877514;29;20037;-75
2022/11/08 12:29:37;;;;;;;;;;;16.40;99.90;;;;;;4873934;29;20045;-75
2022/11/08 12:32:08;;;;;;;24.00;16.50;;;16.50;99.90;;;;;;4859266;29;20371;-76
2022/11/08 12:35:07;;;;;;;23.65;14.30;;;16.70;99.90;;;;;;4856946;29;20041;-76
2022/11/08 12:37:38;;;;;;;28.15;16.63;;;16.40;99.90;;;;;;4867513;29;20476;-75
2022/11/08 12:40:19;;;;;;;23.88;15.20;;;15.80;99.90;;;;;;4857471;29;20061;-75
2022/11/08 12:43:02;;;;;;;27.75;17.00;;;15.90;99.90;;;;;;4858438;29;20034;-76
2022/11/08 12:45:45;;;;;;;22.20;15.13;;;15.70;99.90;;;;;;4857315;29;20114;-75
2022/11/08 12:48:14;;;;;;;23.65;14.25;;;15.80;99.90;;;;;;4921845;28;20483;-75
2022/11/08 12:51:01;;;;;;;24.02;15.73;;;15.80;99.90;;;;;;4953476;28;20496;-75
2022/11/08 12:53:38;;;;;;;23.65;15.13;;;15.60;99.90;;;;;;4939956;29;20048;-77
2022/11/08 12:56:11;;;;;;;28.65;17.02;;;15.40;99.90;;;;;;4953092;28;20110;-75
2022/11/08 12:59:05;;;;;;;31.55;18.15;;;15.30;99.90;;;;;;4934583;29;20051;-76
2022/11/08 13:01:31;;;;;;;31.25;20.33;;;15.30;99.90;;;;;;4933288;29;20035;-78
2022/11/08 13:04:05;;;;;;;29.30;19.00;;;15.20;99.90;;;;;;4934512;29;20054;-75
2022/11/08 13:06:46;;;;;;;34.00;23.20;;;15.10;99.90;;;;;;4939403;28;20073;-75
2022/11/08 13:09:43;;;;;;;31.45;21.25;;;15.10;99.90;;;;;;4943638;29;20502;-75
2022/11/08 13:12:43;;;;;;;32.75;20.13;;;15.00;99.90;;;;;;4965268;29;20048;-76
2022/11/08 13:15:20;;;;;;;27.30;19.73;;;14.80;99.90;;;;;;4952015;28;20035;-77
2022/11/08 13:18:06;;;;;;;30.92;20.90;;;14.70;99.90;;;;;;4965301;28;20122;-76
2022/11/08 13:20:45;;;;;;;28.73;19.23;;;14.90;99.90;;;;;;4968728;28;20093;-75
2022/11/08 13:23:19;;;;;;;30.45;20.23;;;14.80;99.90;;;;;;4983604;28;20385;-78
2022/11/08 13:25:46;;;;;;;30.02;21.15;;;14.80;99.90;;;;;;4962414;28;20035;-77
2022/11/08 13:28:41;;;;;;;37.80;21.50;;;14.80;99.90;;;;;;4957143;28;20067;-78
2022/11/08 13:31:17;;;;;;;32.60;21.92;;;14.80;99.90;;;;;;4970145;28;20046;-77
2022/11/08 13:34:21;;;;;;;31.10;20.65;;;14.80;99.90;;;;;;4975781;28;20053;-76
2022/11/08 13:36:56;;;;;;;33.70;23.00;;;14.80;99.90;;;;;;4932893;29;20040;-77
2022/11/08 13:39:52;;;;;;;34.92;21.80;;;14.60;99.90;;;;;;4921691;29;20083;-78
2022/11/08 13:42:18;;;;;;;31.45;21.88;;;14.70;99.90;;;;;;4930416;29;20067;-77